Millenium Air

Millenium Air Since 1998



 METAR AND TAF INFORMATION
METAR FOR LICJ
ADDS - METARS form results

(0456 UTC 05 August 2020)
Data provider http://aviationweather.gov/metar/data/
 
METAR text: LICJ 050450Z 20012KT 9999 SCT030 24/15 Q1008
Conditions at: LICJ (PALERMO/POINT RA, IT) observed 0450 UTC 05 August 2020
Temperature: 24.0°C (75°F)
Dewpoint: 15.0°C (59°F) [RH = 57%]
Pressure (altimeter): 29.76 inches Hg (1008.0 mb)
Winds: from the SSW (200 degrees) at 14 MPH (12 knots; 6.2 m/s)
Visibility: 6 or more miles (10+ km)
Ceiling: at least 12,000 feet AGL
Clouds: scattered clouds at 3000 feet AGL
Weather: no significant weather observed at this time

METAR text: LICJ 050420Z 20010KT 9999 FEW030 24/13 Q1009
Conditions at: LICJ (PALERMO/POINT RA, IT) observed 0420 UTC 05 August 2020
Temperature: 24.0°C (75°F)
Dewpoint: 13.0°C (55°F) [RH = 50%]
Pressure (altimeter): 29.79 inches Hg (1009.0 mb)
Winds: from the SSW (200 degrees) at 12 MPH (10 knots; 5.1 m/s)
Visibility: 6 or more miles (10+ km)
Ceiling: at least 12,000 feet AGL
Clouds: few clouds at 3000 feet AGL
Weather: no significant weather observed at this time

Forecast for: LICJ (PALERMO/POINT RA, IT)
Text: TAF LICJ 042300Z 0500/0524 26016KT 9999 SCT030
Forecast period: 0000 UTC 05 August 2020 to 0000 UTC 06 August 2020
Forecast type: FROM: standard forecast or significant change
Winds: from the W (260 degrees) at 18 MPH (16 knots; 8.2 m/s)
Visibility: 6 or more miles 10+ km)
Ceiling: at least 12,000 feet AGL
Clouds: scattered clouds at 3000 feet AGL
Weather: no significant weather forecast for this period

 AIRPORT MAP

 RUNWAY INFORMATION
Runway 02 Runway length 6804 ft Runway width 148 ft
Runway elevation 42 ft Runway displaced threshold 10 ft Runway heading 24
Runway 20 Runway length 6804 ft Runway width 148 ft
Runway elevation 22 ft Runway displaced threshold 10 ft Runway heading 204
Runway 07 Runway length 10912 ft Runway width 197 ft
Runway elevation 33 ft Runway displaced threshold 404 ft Runway heading 67
Runway 25 Runway length 10912 ft Runway width 197 ft
Runway elevation 50 ft Runway displaced threshold 679 ft Runway heading 247

 AIRPORT FREQUENCIES
Type APP Name APP Frequency 120.2 MHZ
Type GND Name RAISI GND Frequency 121.625 MHZ
Type TWR Name RAISI TWR Frequency 119.05 MHZ

 AIRPORT NEAR NAVIGATION AIDS
Type VOR-DME Name Palermo Frequency 112300 KHZ
Type NDB Name Palermo Frequency 356 KHZ
Type VOR-DME Name Raisi Frequency 113000 KHZ
Type NDB Name Raisi Frequency 329 KHZ